Time;durP1;ratioP1;P1;durP2;ratioP2;P2;SDS_P1;SDS_P2;PMS_P1;PMS_P2;Temp;Humidity;BMP_temperature;BMP_pressure;BME280_temperature;BME280_humidity;BME280_pressure;Samples;Min_cycle;Max_cycle;Signal;HPM_P1;HPM_P2
2022/02/09 00:01:23;;;;;;;4.43;2.90;;;8.70;1.00;;;;;;5041116;28;20410;-75
2022/02/09 00:04:02;;;;;;;5.03;3.17;;;8.90;1.00;;;;;;5045276;28;20411;-75
2022/02/09 00:09:06;;;;;;;3.27;2.97;;;8.80;1.00;;;;;;5047419;28;20885;-75
2022/02/09 00:11:47;;;;;;;3.27;2.97;;;8.80;1.00;;;;;;5041940;28;20432;-75
2022/02/09 00:14:24;;;;;;;3.97;3.00;;;8.70;1.00;;;;;;5039046;28;20459;-75
2022/02/09 01:39:25;;;;;;;3.50;2.50;;;8.90;1.00;;;;;;5054792;28;20433;-75
2022/02/09 01:51:12;;;;;;;3.40;2.67;;;8.90;1.00;;;;;;5049617;28;20233;-75
2022/02/09 01:55:31;;;;;;;3.43;2.70;;;8.80;1.00;;;;;;5054136;28;20400;-75
2022/02/09 01:58:00;;;;;;;8.03;3.03;;;8.80;1.00;;;;;;5049927;28;20411;-75
2022/02/09 02:00:27;;;;;;;4.50;2.77;;;8.80;1.00;;;;;;5045857;28;20414;-75
2022/02/09 02:03:00;;;;;;;2.93;2.63;;;8.80;1.00;;;;;;5056261;28;20483;-75
2022/02/09 02:05:36;;;;;;;5.17;3.13;;;8.80;1.00;;;;;;5047556;28;20500;-75
2022/02/09 02:08:09;;;;;;;4.57;3.03;;;8.80;1.00;;;;;;5049953;28;20417;-76
2022/02/09 02:18:54;;;;;;;3.53;2.57;;;8.80;1.00;;;;;;5045294;28;20407;-75
2022/02/09 02:27:19;;;;;;;2.90;2.70;;;8.90;1.00;;;;;;5056247;28;20386;-75
2022/02/09 02:57:15;;;;;;;2.03;1.93;;;8.80;1.00;;;;;;5013903;28;20403;-76
2022/02/09 03:13:26;;;;;;;2.10;2.00;;;8.70;1.00;;;;;;5004975;28;20456;-76
2022/02/09 03:16:09;;;;;;;2.17;1.93;;;8.70;1.00;;;;;;5053617;28;20452;-76
2022/02/09 03:24:39;;;;;;;2.43;2.23;;;8.70;1.00;;;;;;5030844;28;20427;-75
2022/02/09 03:56:54;;;;;;;4.00;2.70;;;8.60;1.00;;;;;;5027297;28;20773;-75
2022/02/09 03:59:33;;;;;;;2.40;2.20;;;8.60;1.00;;;;;;5032812;28;20537;-75
2022/02/09 04:02:07;;;;;;;2.50;2.30;;;8.60;1.00;;;;;;5042633;28;20409;-76
2022/02/09 04:04:33;;;;;;;2.80;2.60;;;8.70;1.00;;;;;;5052245;28;20389;-75
2022/02/09 04:07:02;;;;;;;5.07;2.80;;;8.70;1.00;;;;;;5043619;28;20410;-75
2022/02/09 04:09:28;;;;;;;5.23;3.20;;;8.70;1.00;;;;;;5052961;28;20164;-75
2022/02/09 04:12:05;;;;;;;2.47;2.33;;;8.70;1.00;;;;;;5043497;28;20457;-75
2022/02/09 04:36:50;;;;;;;3.50;2.50;;;8.70;1.00;;;;;;5004182;28;20570;-75
2022/02/09 04:39:45;;;;;;;5.13;3.33;;;8.70;1.00;;;;;;4996278;28;20424;-75
2022/02/09 04:44:54;;;;;;;4.40;3.30;;;8.70;1.00;;;;;;5017175;28;20440;-75
2022/02/09 04:50:21;;;;;;;4.83;3.53;;;8.70;1.00;;;;;;5024769;28;20768;-75
2022/02/09 04:53:14;;;;;;;3.80;3.17;;;8.70;1.00;;;;;;5044148;28;20536;-76
2022/02/09 04:56:11;;;;;;;4.47;2.90;;;8.80;1.00;;;;;;5043371;28;20406;-76
2022/02/09 05:22:53;;;;;;;4.00;3.07;;;8.70;1.00;;;;;;5047025;28;20422;-75
2022/02/09 05:28:09;;;;;;;11.83;4.17;;;8.70;1.00;;;;;;5042282;28;20430;-75
2022/02/09 05:30:35;;;;;;;6.50;4.10;;;8.80;1.00;;;;;;5044456;28;20441;-75
2022/02/09 05:33:06;;;;;;;6.23;2.90;;;8.80;1.00;;;;;;5048748;28;21075;-75
2022/02/09 05:35:36;;;;;;;4.20;3.63;;;8.80;1.00;;;;;;5047839;28;20436;-75
2022/02/09 05:38:04;;;;;;;4.97;3.70;;;8.70;1.00;;;;;;5053429;28;20477;-76
2022/02/09 05:40:29;;;;;;;4.00;3.60;;;8.80;1.00;;;;;;5044453;28;20471;-75
2022/02/09 05:43:00;;;;;;;5.80;3.53;;;8.70;1.00;;;;;;5041813;28;20443;-76
2022/02/09 05:45:36;;;;;;;4.23;3.17;;;8.70;1.00;;;;;;5052053;28;20422;-75
2022/02/09 05:53:37;;;;;;;7.00;3.63;;;8.70;1.00;;;;;;5049428;28;20466;-75
2022/02/09 05:59:02;;;;;;;5.27;3.60;;;8.60;1.00;;;;;;5041264;28;20434;-75
2022/02/09 06:01:27;;;;;;;4.97;3.83;;;8.50;1.00;;;;;;5038719;28;20425;-75
2022/02/09 06:03:54;;;;;;;5.00;3.10;;;8.50;1.00;;;;;;5043635;28;20459;-75
2022/02/09 06:06:24;;;;;;;7.57;3.73;;;8.50;1.00;;;;;;5042003;28;20684;-75
2022/02/09 06:08:56;;;;;;;5.20;3.13;;;8.50;1.00;;;;;;5050899;28;20801;-75
2022/02/09 06:11:34;;;;;;;5.37;3.33;;;8.50;1.00;;;;;;5046016;28;20429;-75
2022/02/09 06:14:19;;;;;;;7.97;3.93;;;8.40;1.00;;;;;;5049584;28;20461;-76
2022/02/09 06:21:55;;;;;;;3.93;3.40;;;;;;;;;;5039109;28;20222;-76
2022/02/09 06:24:25;;;;;;;10.80;3.93;;;8.40;1.00;;;;;;5042853;28;20426;-76
2022/02/09 06:27:00;;;;;;;6.33;4.33;;;8.40;1.00;;;;;;5044479;28;20525;-76
2022/02/09 06:29:26;;;;;;;5.73;3.10;;;8.40;1.00;;;;;;5044507;28;20421;-76
2022/02/09 06:31:52;;;;;;;4.40;3.50;;;;;;;;;;5042856;28;20513;-76
2022/02/09 06:34:21;;;;;;;6.07;3.30;;;8.40;1.00;;;;;;5042872;28;20199;-76
2022/02/09 06:36:58;;;;;;;5.57;3.40;;;8.40;1.00;;;;;;5043396;28;20451;-75
2022/02/09 06:39:36;;;;;;;4.50;3.33;;;8.40;1.00;;;;;;5044938;28;20422;-75
2022/02/09 06:42:03;;;;;;;3.97;3.10;;;8.40;1.00;;;;;;5053653;28;20434;-75
2022/02/09 06:44:31;;;;;;;5.80;3.80;;;8.40;1.00;;;;;;5046989;28;20426;-76
2022/02/09 06:47:07;;;;;;;4.60;3.50;;;8.40;1.00;;;;;;5042403;28;20900;-75
2022/02/09 06:49:34;;;;;;;4.33;3.23;;;8.30;1.00;;;;;;5041055;28;20439;-75
2022/02/09 06:52:00;;;;;;;5.23;3.37;;;8.30;1.00;;;;;;5055607;28;20418;-75
2022/02/09 06:54:45;;;;;;;5.07;3.47;;;8.30;1.00;;;;;;5037679;28;20463;-76
2022/02/09 06:57:27;;;;;;;8.00;3.07;;;8.30;1.00;;;;;;5051968;28;20419;-75
2022/02/09 06:59:53;;;;;;;4.73;3.20;;;8.40;1.00;;;;;;5043119;28;20817;-76
2022/02/09 07:02:24;;;;;;;6.87;3.60;;;8.40;1.00;;;;;;5050401;28;20418;-75
2022/02/09 07:05:08;;;;;;;6.23;3.50;;;8.50;1.00;;;;;;5048368;28;20184;-75
2022/02/09 07:07:33;;;;;;;4.93;3.50;;;8.50;1.00;;;;;;5049147;28;20440;-75
2022/02/09 07:09:59;;;;;;;5.53;3.47;;;8.50;1.00;;;;;;5035702;28;20396;-73
2022/02/09 07:12:25;;;;;;;5.93;3.50;;;8.50;1.00;;;;;;5043132;28;20597;-75
2022/02/09 07:14:53;;;;;;;3.87;3.20;;;8.50;1.00;;;;;;5043235;28;20184;-75
2022/02/09 07:17:24;;;;;;;4.43;3.03;;;8.60;1.00;;;;;;5062881;28;20167;-78
2022/02/09 07:19:55;;;;;;;2.77;2.57;;;8.60;1.00;;;;;;5055121;28;20452;-76
2022/02/09 07:22:35;;;;;;;5.20;3.20;;;8.60;1.00;;;;;;5055625;28;20857;-76
2022/02/09 07:25:12;;;;;;;4.30;2.90;;;8.60;1.00;;;;;;5044069;28;20557;-77
2022/02/09 07:30:24;;;;;;;4.77;2.83;;;8.60;1.00;;;;;;5037494;28;20929;-76
2022/02/09 07:33:08;;;;;;;3.73;3.00;;;8.70;1.00;;;;;;5054937;28;20505;-76
2022/02/09 07:35:38;;;;;;;5.67;3.37;;;8.70;1.00;;;;;;5050685;28;20437;-76
2022/02/09 07:38:13;;;;;;;4.23;2.50;;;8.70;1.00;;;;;;5052135;28;20803;-75
2022/02/09 07:40:42;;;;;;;5.40;2.67;;;8.70;1.00;;;;;;5043055;28;20912;-76
2022/02/09 07:43:14;;;;;;;3.83;2.20;;;8.80;1.00;;;;;;5041460;28;20514;-76
2022/02/09 07:48:24;;;;;;;2.50;2.30;;;;;;;;;;5044921;28;20418;-76
2022/02/09 07:51:38;;;;;;;6.50;2.50;;;8.80;1.00;;;;;;5044817;28;20179;-76
2022/02/09 07:54:02;;;;;;;2.60;1.97;;;8.80;1.00;;;;;;5037899;28;20450;-76
2022/02/09 07:56:49;;;;;;;3.00;2.70;;;8.90;1.00;;;;;;5049373;28;20426;-76
2022/02/09 07:59:15;;;;;;;2.60;2.40;;;8.90;1.00;;;;;;5054145;28;20913;-76
2022/02/09 08:01:43;;;;;;;2.50;2.30;;;9.00;1.00;;;;;;5040968;28;20405;-78
2022/02/09 08:04:42;;;;;;;2.53;1.93;;;9.00;1.00;;;;;;5042626;28;20419;-79
2022/02/09 08:07:18;;;;;;;5.83;2.47;;;9.10;1.00;;;;;;5034621;28;20415;-79
2022/02/09 08:09:48;;;;;;;1.80;1.70;;;9.10;1.00;;;;;;5040127;28;20458;-79
2022/02/09 08:24:06;;;;;;;3.37;2.47;;;9.30;1.00;;;;;;5022432;28;20863;-78
2022/02/09 08:26:50;;;;;;;2.20;2.00;;;9.20;1.00;;;;;;5012116;28;20402;-83
2022/02/09 08:29:21;;;;;;;3.40;2.90;;;9.30;1.00;;;;;;5000411;28;20452;-82
2022/02/09 08:32:34;;;;;;;3.37;2.53;;;9.40;1.00;;;;;;5023297;28;20597;-76
2022/02/09 08:34:49;;;;;;;2.70;2.10;;;9.50;1.00;;;;;;5037881;28;20941;-76
2022/02/09 08:37:19;;;;;;;2.87;2.00;;;9.60;1.00;;;;;;5032262;28;20443;-76
2022/02/09 08:39:50;;;;;;;3.40;2.20;;;9.60;1.00;;;;;;5031665;28;20957;-76
2022/02/09 08:42:19;;;;;;;5.80;3.17;;;9.60;1.00;;;;;;5020227;28;20558;-76
2022/02/09 08:44:55;;;;;;;3.40;2.63;;;9.70;1.00;;;;;;5030017;28;20538;-75
2022/02/09 08:47:31;;;;;;;3.10;2.13;;;9.70;1.00;;;;;;5031525;28;20414;-75
2022/02/09 08:49:57;;;;;;;7.30;3.67;;;9.70;1.00;;;;;;5032732;28;20929;-75
2022/02/09 08:52:23;;;;;;;2.97;2.67;;;;;;;;;;5048704;28;20461;-76
2022/02/09 08:54:50;;;;;;;3.87;2.60;;;9.80;1.00;;;;;;5052573;28;20428;-76
2022/02/09 08:57:20;;;;;;;2.97;2.40;;;9.90;1.00;;;;;;5041494;28;20429;-75
2022/02/09 08:59:50;;;;;;;3.50;2.53;;;9.90;1.00;;;;;;5033873;28;20529;-75
2022/02/09 09:02:19;;;;;;;3.37;2.50;;;10.00;1.00;;;;;;5046100;28;20892;-75
2022/02/09 09:04:51;;;;;;;3.13;2.80;;;10.00;1.00;;;;;;5043454;28;20550;-75
2022/02/09 09:07:23;;;;;;;4.40;2.23;;;10.10;1.00;;;;;;5039120;28;20440;-76
2022/02/09 09:31:30;;;;;;;2.50;2.30;;;10.70;1.00;;;;;;5051466;28;20433;-76
2022/02/09 10:34:09;;;;;;;3.10;2.10;;;11.80;1.00;;;;;;5046162;28;20462;-76
2022/02/09 10:37:00;;;;;;;3.53;2.63;;;11.80;1.00;;;;;;5046269;28;20451;-76
2022/02/09 10:39:41;;;;;;;5.93;3.30;;;11.80;1.00;;;;;;5045613;28;20943;-75
2022/02/09 10:42:20;;;;;;;8.13;2.47;;;11.90;1.00;;;;;;5045457;28;20428;-76
2022/02/09 10:44:51;;;;;;;4.13;2.73;;;12.00;1.00;;;;;;5042047;28;20430;-76
2022/02/09 10:47:27;;;;;;;4.30;2.43;;;12.00;1.00;;;;;;5048230;28;20488;-76
2022/02/09 10:50:17;;;;;;;1.97;1.87;;;12.10;1.00;;;;;;5043253;28;20435;-76
2022/02/09 10:52:49;;;;;;;3.77;2.10;;;12.20;1.00;;;;;;5055153;28;20428;-76
2022/02/09 10:55:43;;;;;;;3.50;1.87;;;12.30;1.00;;;;;;5054539;28;20404;-76
2022/02/09 10:58:15;;;;;;;4.17;2.07;;;12.00;1.00;;;;;;5035675;28;20716;-76
2022/02/09 11:00:55;;;;;;;2.23;1.90;;;12.00;1.00;;;;;;5048970;28;20479;-76
2022/02/09 11:03:22;;;;;;;2.40;2.10;;;12.00;1.00;;;;;;5036154;28;20484;-76
2022/02/09 11:05:50;;;;;;;4.53;2.70;;;12.00;1.00;;;;;;5048881;28;20401;-79
2022/02/09 11:08:17;;;;;;;5.20;3.60;;;11.90;1.00;;;;;;5040443;28;20524;-78
2022/02/09 11:10:43;;;;;;;3.23;2.53;;;11.90;1.00;;;;;;5049236;28;20416;-78
2022/02/09 11:13:13;;;;;;;4.30;2.77;;;11.90;1.00;;;;;;5038766;28;20469;-77
2022/02/09 11:15:40;;;;;;;4.07;2.27;;;11.80;1.00;;;;;;5047004;28;20906;-79
2022/02/09 11:18:10;;;;;;;2.70;1.90;;;11.70;1.00;;;;;;5041960;28;20883;-78
2022/02/09 11:20:59;;;;;;;4.43;2.67;;;11.80;1.00;;;;;;5041196;28;20419;-77
2022/02/09 11:23:54;;;;;;;3.50;2.33;;;11.90;1.00;;;;;;5034258;28;20470;-78
2022/02/09 11:35:26;;;;;;;2.10;1.80;;;12.30;1.00;;;;;;5045264;28;20445;-82
2022/02/09 11:38:11;;;;;;;7.70;2.80;;;12.20;1.00;;;;;;4952846;28;20465;-79
2022/02/09 11:43:52;;;;;;;2.50;1.70;;;12.10;1.00;;;;;;4968520;28;20444;-81
2022/02/09 11:46:45;;;;;;;2.53;1.70;;;12.00;1.00;;;;;;4972705;28;20408;-80
2022/02/09 11:57:30;;;;;;;2.87;1.40;;;12.50;1.00;;;;;;4969669;28;20734;-75
2022/02/09 12:11:25;;;;;;;3.77;1.73;;;13.00;1.00;;;;;;4961196;28;20416;-79
2022/02/09 12:14:02;;;;;;;7.73;1.47;;;13.10;1.00;;;;;;4981219;28;20485;-80
2022/02/09 12:19:15;;;;;;;2.20;1.80;;;13.30;1.00;;;;;;5038424;28;20396;-79
2022/02/09 12:24:37;;;;;;;3.50;1.63;;;13.30;1.00;;;;;;5042616;28;20509;-79
2022/02/09 12:27:04;;;;;;;4.47;2.10;;;13.30;1.00;;;;;;5039248;28;20434;-79
2022/02/09 12:29:40;;;;;;;2.70;2.40;;;13.30;1.00;;;;;;5038978;28;20418;-79
2022/02/09 12:32:15;;;;;;;5.90;1.83;;;13.20;1.00;;;;;;5041949;28;20782;-78
2022/02/09 12:34:53;;;;;;;5.37;2.20;;;13.10;1.00;;;;;;5038987;28;20492;-79
2022/02/09 12:37:19;;;;;;;4.57;2.13;;;13.00;1.00;;;;;;5051513;28;20433;-79
2022/02/09 12:40:12;;;;;;;3.83;1.90;;;12.90;1.00;;;;;;5050547;28;20393;-79
2022/02/09 12:42:46;;;;;;;2.90;2.00;;;13.30;1.00;;;;;;5050794;28;20764;-79
2022/02/09 12:45:16;;;;;;;2.20;2.00;;;13.30;1.00;;;;;;5041851;28;20408;-80
2022/02/09 12:47:46;;;;;;;4.60;1.60;;;13.50;1.00;;;;;;5043711;28;20732;-80
2022/02/09 12:50:24;;;;;;;2.80;1.77;;;13.50;1.00;;;;;;5050776;28;20405;-80
2022/02/09 12:52:51;;;;;;;4.63;1.83;;;13.80;1.00;;;;;;5038493;28;20454;-80
2022/02/09 12:55:24;;;;;;;2.63;2.10;;;13.80;1.00;;;;;;5049795;28;20409;-78
2022/02/09 12:57:52;;;;;;;7.10;1.70;;;14.00;1.00;;;;;;5046399;28;20423;-75
2022/02/09 13:00:25;;;;;;;2.00;1.70;;;13.80;1.00;;;;;;5041789;28;20397;-76
2022/02/09 13:02:53;;;;;;;2.40;1.37;;;13.80;1.00;;;;;;5042474;28;20757;-75
2022/02/09 13:05:18;;;;;;;3.33;1.63;;;13.70;1.00;;;;;;5037306;28;20943;-76
2022/02/09 13:08:01;;;;;;;8.23;1.60;;;13.70;1.00;;;;;;5047012;28;20421;-75
2022/02/09 13:10:38;;;;;;;8.57;1.70;;;13.70;1.00;;;;;;5039919;28;20573;-75
2022/02/09 13:13:11;;;;;;;3.47;1.67;;;13.90;1.00;;;;;;5047162;28;20801;-74
2022/02/09 13:15:52;;;;;;;4.37;1.83;;;14.00;1.00;;;;;;5042594;28;20917;-74
2022/02/09 13:18:44;;;;;;;6.70;2.33;;;14.00;1.00;;;;;;5054304;28;20426;-75
2022/02/09 14:11:41;;;;;;;3.27;1.60;;;13.30;1.00;;;;;;5037258;28;20440;-78
2022/02/09 14:52:16;;;;;;;9.50;1.83;;;13.30;1.00;;;;;;5047688;28;20756;-77
2022/02/09 14:55:07;;;;;;;3.57;1.67;;;13.30;1.00;;;;;;5052298;28;20428;-77
2022/02/09 14:57:40;;;;;;;2.17;1.40;;;13.30;1.00;;;;;;5035075;28;20408;-77
2022/02/09 15:00:11;;;;;;;6.57;1.40;;;13.40;1.00;;;;;;5046302;28;20398;-75
2022/02/09 15:02:52;;;;;;;2.40;1.70;;;13.40;1.00;;;;;;5034746;28;20386;-75
2022/02/09 15:08:22;;;;;;;7.10;1.53;;;13.40;1.00;;;;;;5002157;28;20434;-76
2022/02/09 15:11:11;;;;;;;2.50;1.23;;;13.50;1.00;;;;;;5006422;28;20438;-76
2022/02/09 15:16:15;;;;;;;3.90;2.07;;;13.50;1.00;;;;;;5020883;28;20928;-75
2022/02/09 15:24:11;;;;;;;2.00;1.33;;;13.60;1.00;;;;;;5011166;28;20437;-76
2022/02/09 15:26:37;;;;;;;3.10;1.70;;;13.60;1.00;;;;;;4999752;28;20404;-76
2022/02/09 15:29:03;;;;;;;3.27;2.07;;;13.70;1.00;;;;;;5012150;28;20410;-74
2022/02/09 15:31:44;;;;;;;3.07;1.60;;;13.70;1.00;;;;;;5008773;28;20268;-75
2022/02/09 15:34:25;;;;;;;5.03;2.17;;;13.70;1.00;;;;;;5011288;28;20434;-75
2022/02/09 15:39:21;;;;;;;2.53;1.70;;;13.60;1.00;;;;;;5005492;28;20935;-76
2022/02/09 15:42:07;;;;;;;3.67;2.03;;;13.50;1.00;;;;;;5006566;28;20422;-76
2022/02/09 15:58:34;;;;;;;5.20;1.67;;;13.00;1.00;;;;;;5051146;28;20489;-76
2022/02/09 16:22:23;;;;;;;7.97;1.80;;;12.30;1.00;;;;;;5041514;28;20191;-79
2022/02/09 16:38:11;;;;;;;1.27;1.13;;;11.70;1.00;;;;;;5033440;28;20925;-75
2022/02/09 16:46:15;;;;;;;2.70;1.87;;;11.40;1.00;;;;;;5039857;28;20464;-75
2022/02/09 16:48:53;;;;;;;2.40;2.10;;;11.30;1.00;;;;;;5045651;28;20631;-75
2022/02/09 16:51:21;;;;;;;2.27;1.47;;;11.20;1.00;;;;;;5037090;28;20474;-75
2022/02/09 17:21:05;;;;;;;3.70;2.23;;;10.10;1.00;;;;;;5009537;28;20399;-75
2022/02/09 17:23:30;;;;;;;5.40;1.87;;;10.00;1.00;;;;;;5016708;28;20431;-75
2022/02/09 17:25:56;;;;;;;7.43;1.90;;;10.00;1.00;;;;;;5006609;28;20195;-75
2022/02/09 17:28:22;;;;;;;4.43;2.10;;;9.90;1.00;;;;;;5004217;28;20187;-75
2022/02/09 17:36:10;;;;;;;2.50;1.93;;;9.60;1.00;;;;;;5010366;28;20185;-76
2022/02/09 17:39:00;;;;;;;7.20;2.10;;;9.50;1.00;;;;;;5025400;28;20451;-76
2022/02/09 17:57:55;;;;;;;8.40;2.67;;;8.90;1.00;;;;;;5046523;28;20396;-74
2022/02/09 18:00:21;;;;;;;4.33;2.60;;;8.90;1.00;;;;;;5040982;28;20414;-75
2022/02/09 18:02:53;;;;;;;4.10;2.30;;;8.80;1.00;;;;;;5039106;28;20493;-76
2022/02/09 18:05:24;;;;;;;2.40;2.00;;;8.80;1.00;;;;;;5049445;28;20419;-75
2022/02/09 18:08:04;;;;;;;8.03;2.37;;;8.70;1.00;;;;;;5048209;28;20417;-75
2022/02/09 18:29:40;;;;;;;5.43;2.20;;;8.30;1.00;;;;;;5002290;28;20424;-77
2022/02/09 18:43:09;;;;;;;4.73;1.93;;;8.10;1.00;;;;;;4994704;28;20443;-76
2022/02/09 19:01:08;;;;;;;2.93;2.30;;;7.80;1.00;;;;;;5007930;28;20431;-77
2022/02/09 19:03:03;;;;;;;5.67;2.20;;;7.70;1.00;;;;;;5013378;28;20815;-75
2022/02/09 19:05:41;;;;;;;8.43;2.03;;;7.60;1.00;;;;;;5013472;28;20423;-75
2022/02/09 19:14:13;;;;;;;7.33;2.03;;;7.40;1.00;;;;;;5013343;28;20969;-77
2022/02/09 19:16:49;;;;;;;5.77;2.77;;;7.30;1.00;;;;;;4992696;28;20431;-77
2022/02/09 19:30:58;;;;;;;4.10;2.10;;;6.90;1.00;;;;;;4916743;29;20896;-77
2022/02/09 19:43:10;;;;;;;2.80;1.97;;;6.60;1.00;;;;;;4908601;29;20431;-77
2022/02/09 19:45:42;;;;;;;1.87;1.70;;;6.50;1.00;;;;;;4916546;29;20420;-77
2022/02/09 19:48:09;;;;;;;2.73;2.03;;;6.40;1.00;;;;;;4926824;29;20452;-76
2022/02/09 19:51:06;;;;;;;4.60;2.50;;;6.40;1.00;;;;;;4916297;29;20416;-77
2022/02/09 19:57:00;;;;;;;2.73;2.20;;;6.30;1.00;;;;;;4911216;29;20416;-78
2022/02/09 19:59:50;;;;;;;6.60;2.43;;;6.20;1.00;;;;;;4940114;28;20916;-78
2022/02/09 20:03:00;;;;;;;4.20;2.20;;;6.20;1.00;;;;;;5007180;28;20972;-79
2022/02/09 20:05:31;;;;;;;6.83;2.50;;;6.10;1.00;;;;;;5054091;28;20410;-76
2022/02/09 20:08:04;;;;;;;6.60;2.77;;;6.10;1.00;;;;;;5041320;28;20422;-77
2022/02/09 20:11:08;;;;;;;5.73;3.07;;;6.00;1.00;;;;;;5039839;28;20544;-77
2022/02/09 20:13:44;;;;;;;4.80;2.27;;;6.00;1.00;;;;;;5040072;28;20499;-77
2022/02/09 20:16:11;;;;;;;2.50;2.00;;;5.90;1.00;;;;;;5052072;28;20402;-76
2022/02/09 20:18:36;;;;;;;6.73;2.37;;;5.90;1.00;;;;;;5042689;28;20465;-77
2022/02/09 20:21:07;;;;;;;4.80;2.50;;;5.90;1.00;;;;;;5048195;28;20439;-77
2022/02/09 20:23:37;;;;;;;4.80;2.00;;;5.80;1.00;;;;;;5044486;28;20708;-77
2022/02/09 20:26:09;;;;;;;13.23;2.70;;;5.80;1.00;;;;;;5049912;28;20852;-77
2022/02/09 20:28:38;;;;;;;3.87;2.30;;;5.70;1.00;;;;;;5053080;28;20438;-77
2022/02/09 20:31:25;;;;;;;3.23;2.47;;;5.80;1.00;;;;;;5036226;28;20425;-76
2022/02/09 20:33:56;;;;;;;3.37;2.27;;;5.70;1.00;;;;;;5046863;28;20536;-77
2022/02/09 20:36:25;;;;;;;5.20;2.70;;;5.70;1.00;;;;;;5049557;28;20465;-77
2022/02/09 20:38:55;;;;;;;3.23;2.03;;;5.60;1.00;;;;;;5036047;28;20447;-77
2022/02/09 20:41:25;;;;;;;4.73;3.40;;;5.60;1.00;;;;;;5045429;28;20487;-76
2022/02/09 20:44:02;;;;;;;3.10;2.33;;;5.60;1.00;;;;;;5051812;28;20487;-76
2022/02/09 20:46:33;;;;;;;2.93;1.90;;;5.50;1.00;;;;;;5044483;28;20943;-76
2022/02/09 20:49:03;;;;;;;2.70;2.33;;;5.50;1.00;;;;;;5049108;28;20431;-76
2022/02/09 20:51:30;;;;;;;4.40;2.17;;;5.40;1.00;;;;;;5046242;28;20505;-76
2022/02/09 20:53:57;;;;;;;4.40;2.63;;;5.40;1.00;;;;;;5048664;28;20450;-76
2022/02/09 20:56:25;;;;;;;3.60;2.10;;;5.40;1.00;;;;;;5034015;28;20415;-76
2022/02/09 20:58:58;;;;;;;5.73;2.57;;;5.40;1.00;;;;;;5037161;28;20434;-76
2022/02/09 21:01:45;;;;;;;4.07;2.37;;;5.30;1.00;;;;;;5033833;28;20422;-76
2022/02/09 21:04:14;;;;;;;6.93;3.10;;;5.20;1.00;;;;;;5051784;28;20429;-76
2022/02/09 21:09:21;;;;;;;4.50;2.77;;;5.20;1.00;;;;;;5046639;28;20932;-76
2022/02/09 21:15:11;;;;;;;4.40;3.30;;;5.10;1.00;;;;;;4998955;28;20452;-76
2022/02/09 21:46:41;;;;;;;5.40;2.97;;;4.80;1.00;;;;;;5015187;28;20423;-78
2022/02/09 21:54:53;;;;;;;7.57;3.60;;;4.60;1.00;;;;;;5037816;28;20512;-77
2022/02/09 22:00:30;;;;;;;4.83;3.20;;;4.60;1.00;;;;;;5056275;28;20420;-77
2022/02/09 22:19:15;;;;;;;4.63;3.47;;;4.40;1.00;;;;;;5051923;28;20405;-77
2022/02/09 22:27:58;;;;;;;5.03;2.53;;;4.30;1.00;;;;;;5050564;28;20421;-75
2022/02/09 22:34:21;;;;;;;4.23;2.43;;;4.30;1.00;;;;;;5036572;28;20457;-75
2022/02/09 22:55:17;;;;;;;7.90;3.40;;;4.30;1.00;;;;;;5042670;28;21020;-77
2022/02/09 22:57:51;;;;;;;8.30;4.10;;;4.30;1.00;;;;;;5045507;28;20413;-77
2022/02/09 23:00:49;;;;;;;5.70;3.00;;;4.30;1.00;;;;;;5049028;28;20407;-77
2022/02/09 23:03:36;;;;;;;6.87;3.70;;;4.30;1.00;;;;;;5042446;28;20419;-76
2022/02/09 23:56:40;;;;;;;2.90;2.53;;;4.10;1.00;;;;;;4973957;28;20410;-75
